sensor_id;sensor_type;location;lat;lon;timestamp;temperature;humidity
41262;DHT22;29629;52.532;13.352;2023-03-14T00:01:30;12.80;99.90
41262;DHT22;29629;52.532;13.352;2023-03-14T00:03:57;12.80;99.90
41262;DHT22;29629;52.532;13.352;2023-03-14T00:06:24;12.80;99.90
41262;DHT22;29629;52.532;13.352;2023-03-14T00:08:52;12.70;99.90
41262;DHT22;29629;52.532;13.352;2023-03-14T00:11:20;12.70;99.90
41262;DHT22;29629;52.532;13.352;2023-03-14T00:13:47;12.70;99.90
41262;DHT22;29629;52.532;13.352;2023-03-14T00:16:14;12.70;99.90
41262;DHT22;29629;52.532;13.352;2023-03-14T00:18:41;12.70;99.90
41262;DHT22;29629;52.532;13.352;2023-03-14T00:21:08;12.70;99.90
41262;DHT22;29629;52.532;13.352;2023-03-14T00:23:35;12.60;99.90
41262;DHT22;29629;52.532;13.352;2023-03-14T00:26:03;12.50;99.90
41262;DHT22;29629;52.532;13.352;2023-03-14T00:28:32;12.50;99.90
41262;DHT22;29629;52.532;13.352;2023-03-14T00:30:58;12.50;99.90
41262;DHT22;29629;52.532;13.352;2023-03-14T00:33:25;12.40;99.90
41262;DHT22;29629;52.532;13.352;2023-03-14T00:35:53;12.40;99.90
41262;DHT22;29629;52.532;13.352;2023-03-14T00:38:19;12.40;99.90
41262;DHT22;29629;52.532;13.352;2023-03-14T00:40:46;12.30;99.90
41262;DHT22;29629;52.532;13.352;2023-03-14T00:43:13;12.40;99.90
41262;DHT22;29629;52.532;13.352;2023-03-14T00:45:41;12.30;99.90
41262;DHT22;29629;52.532;13.352;2023-03-14T00:48:08;12.30;99.90
41262;DHT22;29629;52.532;13.352;2023-03-14T00:50:35;12.30;99.90
41262;DHT22;29629;52.532;13.352;2023-03-14T00:53:02;12.30;99.90
41262;DHT22;29629;52.532;13.352;2023-03-14T00:55:28;12.20;99.90
41262;DHT22;29629;52.532;13.352;2023-03-14T00:57:55;12.30;99.90
41262;DHT22;29629;52.532;13.352;2023-03-14T01:00:22;12.20;99.90
41262;DHT22;29629;52.532;13.352;2023-03-14T01:02:50;12.20;99.90
41262;DHT22;29629;52.532;13.352;2023-03-14T01:05:17;12.20;99.90
41262;DHT22;29629;52.532;13.352;2023-03-14T01:07:43;12.20;99.90
41262;DHT22;29629;52.532;13.352;2023-03-14T01:10:10;12.10;99.90
41262;DHT22;29629;52.532;13.352;2023-03-14T01:12:37;12.10;99.90
41262;DHT22;29629;52.532;13.352;2023-03-14T01:15:04;12.10;99.90
41262;DHT22;29629;52.532;13.352;2023-03-14T01:17:31;12.00;99.90
41262;DHT22;29629;52.532;13.352;2023-03-14T01:19:59;12.00;99.90
41262;DHT22;29629;52.532;13.352;2023-03-14T01:22:26;12.00;99.90
41262;DHT22;29629;52.532;13.352;2023-03-14T01:24:52;12.00;99.90
41262;DHT22;29629;52.532;13.352;2023-03-14T01:27:19;12.00;99.90
41262;DHT22;29629;52.532;13.352;2023-03-14T01:29:46;12.00;99.90
41262;DHT22;29629;52.532;13.352;2023-03-14T01:32:13;12.00;99.90
41262;DHT22;29629;52.532;13.352;2023-03-14T01:34:39;12.00;99.90
41262;DHT22;29629;52.532;13.352;2023-03-14T01:37:07;11.90;99.90
41262;DHT22;29629;52.532;13.352;2023-03-14T01:39:34;11.90;99.90
41262;DHT22;29629;52.532;13.352;2023-03-14T01:42:01;11.90;99.90
41262;DHT22;29629;52.532;13.352;2023-03-14T01:44:28;11.90;99.90
41262;DHT22;29629;52.532;13.352;2023-03-14T01:46:54;12.00;99.90
41262;DHT22;29629;52.532;13.352;2023-03-14T01:49:22;11.90;99.90
41262;DHT22;29629;52.532;13.352;2023-03-14T01:51:52;12.00;99.90
41262;DHT22;29629;52.532;13.352;2023-03-14T01:54:21;11.90;99.90
41262;DHT22;29629;52.532;13.352;2023-03-14T01:56:50;11.90;99.90
41262;DHT22;29629;52.532;13.352;2023-03-14T01:59:18;11.80;99.90
41262;DHT22;29629;52.532;13.352;2023-03-14T02:01:45;11.80;99.90
41262;DHT22;29629;52.532;13.352;2023-03-14T02:04:13;11.80;99.90
41262;DHT22;29629;52.532;13.352;2023-03-14T02:06:43;11.80;99.90
41262;DHT22;29629;52.532;13.352;2023-03-14T02:09:11;11.70;99.90
41262;DHT22;29629;52.532;13.352;2023-03-14T02:11:39;11.70;99.90
41262;DHT22;29629;52.532;13.352;2023-03-14T02:14:06;11.70;99.90
41262;DHT22;29629;52.532;13.352;2023-03-14T02:16:34;11.70;99.90
41262;DHT22;29629;52.532;13.352;2023-03-14T02:19:01;11.70;99.90
41262;DHT22;29629;52.532;13.352;2023-03-14T02:21:31;11.70;99.90
41262;DHT22;29629;52.532;13.352;2023-03-14T02:24:03;11.70;99.90
41262;DHT22;29629;52.532;13.352;2023-03-14T02:26:33;11.70;99.90
41262;DHT22;29629;52.532;13.352;2023-03-14T02:29:02;11.70;99.90
41262;DHT22;29629;52.532;13.352;2023-03-14T02:31:29;11.70;99.90
41262;DHT22;29629;52.532;13.352;2023-03-14T02:33:55;11.70;99.90
41262;DHT22;29629;52.532;13.352;2023-03-14T02:36:23;11.70;99.90
41262;DHT22;29629;52.532;13.352;2023-03-14T02:38:51;11.70;99.90
41262;DHT22;29629;52.532;13.352;2023-03-14T02:41:18;11.70;99.90
41262;DHT22;29629;52.532;13.352;2023-03-14T02:43:45;11.70;99.90
41262;DHT22;29629;52.532;13.352;2023-03-14T02:46:14;11.70;99.90
41262;DHT22;29629;52.532;13.352;2023-03-14T02:48:43;11.70;99.90
41262;DHT22;29629;52.532;13.352;2023-03-14T02:51:11;11.70;99.90
41262;DHT22;29629;52.532;13.352;2023-03-14T02:53:38;11.60;99.90
41262;DHT22;29629;52.532;13.352;2023-03-14T02:56:07;11.60;99.90
41262;DHT22;29629;52.532;13.352;2023-03-14T02:58:34;11.60;99.90
41262;DHT22;29629;52.532;13.352;2023-03-14T03:01:00;11.60;99.90
41262;DHT22;29629;52.532;13.352;2023-03-14T03:03:28;11.60;99.90
41262;DHT22;29629;52.532;13.352;2023-03-14T03:05:55;11.60;99.90
41262;DHT22;29629;52.532;13.352;2023-03-14T03:08:23;11.50;99.90
41262;DHT22;29629;52.532;13.352;2023-03-14T03:10:51;11.50;99.90
41262;DHT22;29629;52.532;13.352;2023-03-14T03:13:17;11.50;99.90
41262;DHT22;29629;52.532;13.352;2023-03-14T03:15:44;11.50;99.90
41262;DHT22;29629;52.532;13.352;2023-03-14T03:18:11;11.50;99.90
41262;DHT22;29629;52.532;13.352;2023-03-14T03:20:39;11.50;99.90
41262;DHT22;29629;52.532;13.352;2023-03-14T03:23:06;11.50;99.90
41262;DHT22;29629;52.532;13.352;2023-03-14T03:25:33;11.50;99.90
41262;DHT22;29629;52.532;13.352;2023-03-14T03:27:59;11.50;99.90
41262;DHT22;29629;52.532;13.352;2023-03-14T03:30:26;11.50;99.90
41262;DHT22;29629;52.532;13.352;2023-03-14T03:32:53;11.50;99.90
41262;DHT22;29629;52.532;13.352;2023-03-14T03:35:19;11.40;99.90
41262;DHT22;29629;52.532;13.352;2023-03-14T03:37:47;11.40;99.90
41262;DHT22;29629;52.532;13.352;2023-03-14T03:40:14;11.40;99.90
41262;DHT22;29629;52.532;13.352;2023-03-14T03:42:41;11.40;99.90
41262;DHT22;29629;52.532;13.352;2023-03-14T03:45:08;11.40;99.90
41262;DHT22;29629;52.532;13.352;2023-03-14T03:47:35;11.40;99.90
41262;DHT22;29629;52.532;13.352;2023-03-14T03:50:01;11.40;99.90
41262;DHT22;29629;52.532;13.352;2023-03-14T03:52:29;11.40;99.90
41262;DHT22;29629;52.532;13.352;2023-03-14T03:54:57;11.40;99.90
41262;DHT22;29629;52.532;13.352;2023-03-14T03:57:23;11.40;99.90
41262;DHT22;29629;52.532;13.352;2023-03-14T03:59:50;11.40;99.90
41262;DHT22;29629;52.532;13.352;2023-03-14T04:02:17;11.40;99.90
41262;DHT22;29629;52.532;13.352;2023-03-14T04:04:43;11.40;99.90
41262;DHT22;29629;52.532;13.352;2023-03-14T04:07:10;11.30;99.90
41262;DHT22;29629;52.532;13.352;2023-03-14T04:09:39;11.40;99.90
41262;DHT22;29629;52.532;13.352;2023-03-14T04:12:07;11.30;99.90
41262;DHT22;29629;52.532;13.352;2023-03-14T04:14:34;11.30;99.90
41262;DHT22;29629;52.532;13.352;2023-03-14T04:17:00;11.30;99.90
41262;DHT22;29629;52.532;13.352;2023-03-14T04:19:27;11.30;99.90
41262;DHT22;29629;52.532;13.352;2023-03-14T04:21:54;11.30;99.90
41262;DHT22;29629;52.532;13.352;2023-03-14T04:24:21;11.40;99.90
41262;DHT22;29629;52.532;13.352;2023-03-14T04:26:47;11.40;99.90
41262;DHT22;29629;52.532;13.352;2023-03-14T04:29:15;11.40;99.90
41262;DHT22;29629;52.532;13.352;2023-03-14T04:31:42;11.40;99.90
41262;DHT22;29629;52.532;13.352;2023-03-14T04:34:09;11.40;99.90
41262;DHT22;29629;52.532;13.352;2023-03-14T04:36:36;11.30;99.90
41262;DHT22;29629;52.532;13.352;2023-03-14T04:39:02;11.30;99.90
41262;DHT22;29629;52.532;13.352;2023-03-14T04:41:30;11.30;99.90
41262;DHT22;29629;52.532;13.352;2023-03-14T04:43:57;11.30;99.90
41262;DHT22;29629;52.532;13.352;2023-03-14T04:46:25;11.30;99.90
41262;DHT22;29629;52.532;13.352;2023-03-14T04:48:52;11.30;99.90
41262;DHT22;29629;52.532;13.352;2023-03-14T04:51:19;11.40;99.90
41262;DHT22;29629;52.532;13.352;2023-03-14T04:53:48;11.30;99.90
41262;DHT22;29629;52.532;13.352;2023-03-14T04:56:15;11.30;99.90
41262;DHT22;29629;52.532;13.352;2023-03-14T04:58:42;11.40;99.90
41262;DHT22;29629;52.532;13.352;2023-03-14T05:01:09;11.40;99.90
41262;DHT22;29629;52.532;13.352;2023-03-14T05:03:37;11.40;99.90
41262;DHT22;29629;52.532;13.352;2023-03-14T05:06:05;11.40;99.90
41262;DHT22;29629;52.532;13.352;2023-03-14T05:08:32;11.40;99.90
41262;DHT22;29629;52.532;13.352;2023-03-14T05:10:58;11.40;99.90
41262;DHT22;29629;52.532;13.352;2023-03-14T05:13:25;11.30;99.90
41262;DHT22;29629;52.532;13.352;2023-03-14T05:15:52;11.30;99.90
41262;DHT22;29629;52.532;13.352;2023-03-14T05:18:20;11.30;99.90
41262;DHT22;29629;52.532;13.352;2023-03-14T05:20:51;11.30;99.90
41262;DHT22;29629;52.532;13.352;2023-03-14T05:23:18;11.30;99.90
41262;DHT22;29629;52.532;13.352;2023-03-14T05:25:44;11.30;99.90
41262;DHT22;29629;52.532;13.352;2023-03-14T05:28:11;11.30;99.90
41262;DHT22;29629;52.532;13.352;2023-03-14T05:30:38;11.40;99.90
41262;DHT22;29629;52.532;13.352;2023-03-14T05:33:04;11.40;99.90
41262;DHT22;29629;52.532;13.352;2023-03-14T05:35:31;11.40;99.90
41262;DHT22;29629;52.532;13.352;2023-03-14T05:37:59;11.30;99.90
41262;DHT22;29629;52.532;13.352;2023-03-14T05:40:26;11.30;99.90
41262;DHT22;29629;52.532;13.352;2023-03-14T05:42:53;11.30;99.90
41262;DHT22;29629;52.532;13.352;2023-03-14T05:45:19;11.40;99.90
41262;DHT22;29629;52.532;13.352;2023-03-14T05:47:46;11.40;99.90
41262;DHT22;29629;52.532;13.352;2023-03-14T05:50:13;11.40;99.90
41262;DHT22;29629;52.532;13.352;2023-03-14T05:52:40;11.40;99.90
41262;DHT22;29629;52.532;13.352;2023-03-14T05:55:08;11.40;99.90
41262;DHT22;29629;52.532;13.352;2023-03-14T05:57:35;11.40;99.90
41262;DHT22;29629;52.532;13.352;2023-03-14T06:00:03;11.40;99.90
41262;DHT22;29629;52.532;13.352;2023-03-14T06:02:30;11.40;99.90
41262;DHT22;29629;52.532;13.352;2023-03-14T06:04:57;11.40;99.90
41262;DHT22;29629;52.532;13.352;2023-03-14T06:07:31;11.40;99.90
41262;DHT22;29629;52.532;13.352;2023-03-14T06:09:58;11.40;99.90
41262;DHT22;29629;52.532;13.352;2023-03-14T06:12:26;11.40;99.90
41262;DHT22;29629;52.532;13.352;2023-03-14T06:14:53;11.40;99.90
41262;DHT22;29629;52.532;13.352;2023-03-14T06:17:20;11.40;99.90
41262;DHT22;29629;52.532;13.352;2023-03-14T06:19:47;11.50;99.90
41262;DHT22;29629;52.532;13.352;2023-03-14T06:22:13;11.50;99.90
41262;DHT22;29629;52.532;13.352;2023-03-14T06:24:40;11.50;99.90
41262;DHT22;29629;52.532;13.352;2023-03-14T06:27:07;11.50;99.90
41262;DHT22;29629;52.532;13.352;2023-03-14T06:29:35;11.60;99.90
41262;DHT22;29629;52.532;13.352;2023-03-14T06:32:05;11.60;99.90
41262;DHT22;29629;52.532;13.352;2023-03-14T06:34:31;11.60;99.90
41262;DHT22;29629;52.532;13.352;2023-03-14T06:36:58;11.60;99.90
41262;DHT22;29629;52.532;13.352;2023-03-14T06:39:25;11.60;99.90
41262;DHT22;29629;52.532;13.352;2023-03-14T06:41:51;11.60;99.90
41262;DHT22;29629;52.532;13.352;2023-03-14T06:44:18;11.60;99.90
41262;DHT22;29629;52.532;13.352;2023-03-14T06:46:46;11.70;99.90
41262;DHT22;29629;52.532;13.352;2023-03-14T06:49:13;11.70;99.90
41262;DHT22;29629;52.532;13.352;2023-03-14T06:51:40;11.80;99.90
41262;DHT22;29629;52.532;13.352;2023-03-14T06:54:07;11.80;99.90
41262;DHT22;29629;52.532;13.352;2023-03-14T06:56:33;11.80;99.90
41262;DHT22;29629;52.532;13.352;2023-03-14T06:59:00;11.90;99.90
41262;DHT22;29629;52.532;13.352;2023-03-14T07:01:27;12.00;99.90
41262;DHT22;29629;52.532;13.352;2023-03-14T07:03:56;12.10;99.90
41262;DHT22;29629;52.532;13.352;2023-03-14T07:06:23;12.10;99.90
41262;DHT22;29629;52.532;13.352;2023-03-14T07:08:50;12.20;99.90
41262;DHT22;29629;52.532;13.352;2023-03-14T07:11:17;12.20;99.90
41262;DHT22;29629;52.532;13.352;2023-03-14T07:13:43;12.20;99.90
41262;DHT22;29629;52.532;13.352;2023-03-14T07:16:10;12.20;99.90
41262;DHT22;29629;52.532;13.352;2023-03-14T07:18:37;12.10;99.90
41262;DHT22;29629;52.532;13.352;2023-03-14T07:21:05;12.10;99.90
41262;DHT22;29629;52.532;13.352;2023-03-14T07:23:32;12.10;99.90
41262;DHT22;29629;52.532;13.352;2023-03-14T07:25:59;12.10;99.90
41262;DHT22;29629;52.532;13.352;2023-03-14T07:28:26;12.10;99.90
41262;DHT22;29629;52.532;13.352;2023-03-14T07:30:53;12.10;99.90
41262;DHT22;29629;52.532;13.352;2023-03-14T07:33:20;12.10;99.90
41262;DHT22;29629;52.532;13.352;2023-03-14T07:35:47;12.20;99.90
41262;DHT22;29629;52.532;13.352;2023-03-14T07:38:16;12.20;99.90
41262;DHT22;29629;52.532;13.352;2023-03-14T07:40:42;12.10;99.90
41262;DHT22;29629;52.532;13.352;2023-03-14T07:43:09;12.10;99.90
41262;DHT22;29629;52.532;13.352;2023-03-14T07:45:36;12.10;99.90
41262;DHT22;29629;52.532;13.352;2023-03-14T07:48:03;12.10;99.90
41262;DHT22;29629;52.532;13.352;2023-03-14T07:50:30;12.20;99.90
41262;DHT22;29629;52.532;13.352;2023-03-14T07:52:56;12.20;99.90
41262;DHT22;29629;52.532;13.352;2023-03-14T07:55:25;12.20;99.90
41262;DHT22;29629;52.532;13.352;2023-03-14T07:57:51;12.30;99.90
41262;DHT22;29629;52.532;13.352;2023-03-14T08:00:18;12.40;99.90
41262;DHT22;29629;52.532;13.352;2023-03-14T08:02:45;12.70;99.90
41262;DHT22;29629;52.532;13.352;2023-03-14T08:05:12;12.90;99.90
41262;DHT22;29629;52.532;13.352;2023-03-14T08:07:39;12.70;99.90
41262;DHT22;29629;52.532;13.352;2023-03-14T08:10:06;12.70;99.90
41262;DHT22;29629;52.532;13.352;2023-03-14T08:12:34;12.70;99.90
41262;DHT22;29629;52.532;13.352;2023-03-14T08:15:01;12.80;99.90
41262;DHT22;29629;52.532;13.352;2023-03-14T08:17:28;12.70;99.90
41262;DHT22;29629;52.532;13.352;2023-03-14T08:19:54;12.70;99.90
41262;DHT22;29629;52.532;13.352;2023-03-14T08:22:21;12.80;99.90
41262;DHT22;29629;52.532;13.352;2023-03-14T08:24:48;12.80;99.90
41262;DHT22;29629;52.532;13.352;2023-03-14T08:27:14;12.80;99.90
41262;DHT22;29629;52.532;13.352;2023-03-14T08:29:43;12.80;99.90
41262;DHT22;29629;52.532;13.352;2023-03-14T08:32:09;12.80;99.90
41262;DHT22;29629;52.532;13.352;2023-03-14T08:34:36;12.80;99.90
41262;DHT22;29629;52.532;13.352;2023-03-14T08:37:04;12.80;99.90
41262;DHT22;29629;52.532;13.352;2023-03-14T08:39:31;12.70;99.90
41262;DHT22;29629;52.532;13.352;2023-03-14T08:41:58;12.70;99.90
41262;DHT22;29629;52.532;13.352;2023-03-14T08:44:25;12.70;99.90
41262;DHT22;29629;52.532;13.352;2023-03-14T08:46:53;12.70;99.90
41262;DHT22;29629;52.532;13.352;2023-03-14T08:49:20;12.70;99.90
41262;DHT22;29629;52.532;13.352;2023-03-14T08:51:46;12.70;99.90
41262;DHT22;29629;52.532;13.352;2023-03-14T08:54:13;12.70;99.90
41262;DHT22;29629;52.532;13.352;2023-03-14T08:56:40;12.70;99.90
41262;DHT22;29629;52.532;13.352;2023-03-14T08:59:06;12.70;99.90
41262;DHT22;29629;52.532;13.352;2023-03-14T09:01:35;12.70;99.90
41262;DHT22;29629;52.532;13.352;2023-03-14T09:04:03;12.70;99.90
41262;DHT22;29629;52.532;13.352;2023-03-14T09:06:30;12.70;99.90
41262;DHT22;29629;52.532;13.352;2023-03-14T09:08:57;12.80;99.90
41262;DHT22;29629;52.532;13.352;2023-03-14T09:11:24;12.90;99.90
41262;DHT22;29629;52.532;13.352;2023-03-14T09:13:50;13.10;99.90
41262;DHT22;29629;52.532;13.352;2023-03-14T09:16:17;13.20;99.90
41262;DHT22;29629;52.532;13.352;2023-03-14T09:18:44;13.30;99.90
41262;DHT22;29629;52.532;13.352;2023-03-14T09:21:12;15.00;99.90
41262;DHT22;29629;52.532;13.352;2023-03-14T09:23:39;17.00;99.90
41262;DHT22;29629;52.532;13.352;2023-03-14T09:26:06;18.40;99.90
41262;DHT22;29629;52.532;13.352;2023-03-14T09:28:33;18.80;99.90
41262;DHT22;29629;52.532;13.352;2023-03-14T09:31:04;19.00;99.90
41262;DHT22;29629;52.532;13.352;2023-03-14T09:33:31;22.30;99.90
41262;DHT22;29629;52.532;13.352;2023-03-14T09:35:58;20.40;99.90
41262;DHT22;29629;52.532;13.352;2023-03-14T09:38:26;18.80;99.90
41262;DHT22;29629;52.532;13.352;2023-03-14T09:40:53;17.20;99.90
41262;DHT22;29629;52.532;13.352;2023-03-14T09:43:21;15.70;99.90
41262;DHT22;29629;52.532;13.352;2023-03-14T09:45:48;15.40;99.90
41262;DHT22;29629;52.532;13.352;2023-03-14T09:48:19;15.10;99.90
41262;DHT22;29629;52.532;13.352;2023-03-14T09:50:48;14.50;99.90
41262;DHT22;29629;52.532;13.352;2023-03-14T09:53:16;14.40;99.90
41262;DHT22;29629;52.532;13.352;2023-03-14T09:55:45;14.30;99.90
41262;DHT22;29629;52.532;13.352;2023-03-14T09:58:14;14.10;99.90
41262;DHT22;29629;52.532;13.352;2023-03-14T10:00:42;14.10;99.90
41262;DHT22;29629;52.532;13.352;2023-03-14T10:03:22;14.10;99.90
41262;DHT22;29629;52.532;13.352;2023-03-14T10:05:50;14.00;99.90
41262;DHT22;29629;52.532;13.352;2023-03-14T10:08:17;13.90;99.90
41262;DHT22;29629;52.532;13.352;2023-03-14T10:10:45;13.90;99.90
41262;DHT22;29629;52.532;13.352;2023-03-14T10:13:14;13.90;99.90
41262;DHT22;29629;52.532;13.352;2023-03-14T10:15:42;13.80;99.90
41262;DHT22;29629;52.532;13.352;2023-03-14T10:18:13;13.80;99.90
41262;DHT22;29629;52.532;13.352;2023-03-14T10:20:43;13.80;99.90
41262;DHT22;29629;52.532;13.352;2023-03-14T10:23:18;13.90;99.90
41262;DHT22;29629;52.532;13.352;2023-03-14T10:25:59;13.90;99.90
41262;DHT22;29629;52.532;13.352;2023-03-14T10:28:28;13.90;99.90
41262;DHT22;29629;52.532;13.352;2023-03-14T10:30:55;13.90;99.90
41262;DHT22;29629;52.532;13.352;2023-03-14T10:33:23;13.90;99.90
41262;DHT22;29629;52.532;13.352;2023-03-14T10:35:53;13.80;99.90
41262;DHT22;29629;52.532;13.352;2023-03-14T10:38:21;13.80;99.90
41262;DHT22;29629;52.532;13.352;2023-03-14T10:40:50;13.80;99.90
41262;DHT22;29629;52.532;13.352;2023-03-14T10:43:21;13.70;99.90
41262;DHT22;29629;52.532;13.352;2023-03-14T10:45:52;13.70;99.90
41262;DHT22;29629;52.532;13.352;2023-03-14T10:48:24;13.70;99.90
41262;DHT22;29629;52.532;13.352;2023-03-14T10:50:55;13.70;99.90
41262;DHT22;29629;52.532;13.352;2023-03-14T10:53:22;13.60;99.90
41262;DHT22;29629;52.532;13.352;2023-03-14T10:55:49;13.70;99.90
41262;DHT22;29629;52.532;13.352;2023-03-14T10:58:22;13.70;99.90
41262;DHT22;29629;52.532;13.352;2023-03-14T11:00:50;13.70;99.90
41262;DHT22;29629;52.532;13.352;2023-03-14T11:03:20;13.70;99.90
41262;DHT22;29629;52.532;13.352;2023-03-14T11:05:48;13.70;99.90
41262;DHT22;29629;52.532;13.352;2023-03-14T11:08:18;13.60;99.90
41262;DHT22;29629;52.532;13.352;2023-03-14T11:10:46;13.70;99.90
41262;DHT22;29629;52.532;13.352;2023-03-14T11:13:16;13.70;99.90
41262;DHT22;29629;52.532;13.352;2023-03-14T11:15:48;13.60;99.90
41262;DHT22;29629;52.532;13.352;2023-03-14T11:21:08;13.70;99.90
41262;DHT22;29629;52.532;13.352;2023-03-14T11:23:39;13.70;99.90
41262;DHT22;29629;52.532;13.352;2023-03-14T11:26:10;13.70;99.90
41262;DHT22;29629;52.532;13.352;2023-03-14T11:28:44;13.70;99.90
41262;DHT22;29629;52.532;13.352;2023-03-14T11:31:16;13.70;99.90
41262;DHT22;29629;52.532;13.352;2023-03-14T11:33:46;13.70;99.90
41262;DHT22;29629;52.532;13.352;2023-03-14T11:36:15;13.70;99.90
41262;DHT22;29629;52.532;13.352;2023-03-14T11:38:46;13.70;99.90
41262;DHT22;29629;52.532;13.352;2023-03-14T11:41:14;13.70;99.90
41262;DHT22;29629;52.532;13.352;2023-03-14T11:43:42;13.70;99.90
41262;DHT22;29629;52.532;13.352;2023-03-14T11:46:13;13.70;99.90
41262;DHT22;29629;52.532;13.352;2023-03-14T11:48:43;13.70;99.90
41262;DHT22;29629;52.532;13.352;2023-03-14T11:51:13;13.70;99.90
41262;DHT22;29629;52.532;13.352;2023-03-14T11:53:49;13.60;99.90
41262;DHT22;29629;52.532;13.352;2023-03-14T11:56:18;13.60;99.90
41262;DHT22;29629;52.532;13.352;2023-03-14T11:58:48;13.50;99.90
41262;DHT22;29629;52.532;13.352;2023-03-14T12:01:16;13.50;99.90
41262;DHT22;29629;52.532;13.352;2023-03-14T12:03:49;13.60;99.90
41262;DHT22;29629;52.532;13.352;2023-03-14T12:06:21;13.70;99.90
41262;DHT22;29629;52.532;13.352;2023-03-14T12:08:49;13.90;99.90
41262;DHT22;29629;52.532;13.352;2023-03-14T12:11:18;13.70;99.90
41262;DHT22;29629;52.532;13.352;2023-03-14T12:13:46;13.90;99.90
41262;DHT22;29629;52.532;13.352;2023-03-14T12:16:23;13.80;99.90
41262;DHT22;29629;52.532;13.352;2023-03-14T12:18:53;13.70;99.90
41262;DHT22;29629;52.532;13.352;2023-03-14T12:21:20;13.70;99.90
41262;DHT22;29629;52.532;13.352;2023-03-14T12:23:48;13.70;99.90
41262;DHT22;29629;52.532;13.352;2023-03-14T12:26:16;13.70;99.90
41262;DHT22;29629;52.532;13.352;2023-03-14T12:28:44;13.70;99.90
41262;DHT22;29629;52.532;13.352;2023-03-14T12:31:35;13.80;99.90
41262;DHT22;29629;52.532;13.352;2023-03-14T12:34:03;13.90;99.90
41262;DHT22;29629;52.532;13.352;2023-03-14T12:36:46;13.90;99.90
41262;DHT22;29629;52.532;13.352;2023-03-14T12:39:22;13.90;99.90
41262;DHT22;29629;52.532;13.352;2023-03-14T12:41:52;14.10;99.90
41262;DHT22;29629;52.532;13.352;2023-03-14T12:44:38;14.40;99.90
41262;DHT22;29629;52.532;13.352;2023-03-14T12:49:49;14.00;99.90
41262;DHT22;29629;52.532;13.352;2023-03-14T12:52:17;14.00;99.90
41262;DHT22;29629;52.532;13.352;2023-03-14T12:54:45;14.10;99.90
41262;DHT22;29629;52.532;13.352;2023-03-14T12:57:15;14.10;99.90
41262;DHT22;29629;52.532;13.352;2023-03-14T12:59:50;14.20;99.90
41262;DHT22;29629;52.532;13.352;2023-03-14T13:02:19;14.00;99.90
41262;DHT22;29629;52.532;13.352;2023-03-14T13:04:49;13.90;99.90
41262;DHT22;29629;52.532;13.352;2023-03-14T13:07:30;13.20;99.90
41262;DHT22;29629;52.532;13.352;2023-03-14T13:10:00;13.20;99.90
41262;DHT22;29629;52.532;13.352;2023-03-14T13:12:28;13.40;99.90
41262;DHT22;29629;52.532;13.352;2023-03-14T13:14:58;13.30;99.90
41262;DHT22;29629;52.532;13.352;2023-03-14T13:17:26;13.20;99.90
41262;DHT22;29629;52.532;13.352;2023-03-14T13:19:55;12.80;99.90
41262;DHT22;29629;52.532;13.352;2023-03-14T13:22:24;12.80;99.90
41262;DHT22;29629;52.532;13.352;2023-03-14T13:24:57;12.80;99.90
41262;DHT22;29629;52.532;13.352;2023-03-14T13:27:24;12.80;99.90
41262;DHT22;29629;52.532;13.352;2023-03-14T13:29:51;12.70;99.90
41262;DHT22;29629;52.532;13.352;2023-03-14T13:32:19;14.20;99.90
41262;DHT22;29629;52.532;13.352;2023-03-14T13:34:46;14.80;99.90
41262;DHT22;29629;52.532;13.352;2023-03-14T13:37:17;15.50;99.90
41262;DHT22;29629;52.532;13.352;2023-03-14T13:39:48;15.80;99.90
41262;DHT22;29629;52.532;13.352;2023-03-14T13:42:15;16.50;99.90
41262;DHT22;29629;52.532;13.352;2023-03-14T13:44:43;16.70;99.90
41262;DHT22;29629;52.532;13.352;2023-03-14T13:47:10;16.60;99.90
41262;DHT22;29629;52.532;13.352;2023-03-14T13:49:39;16.20;99.90
41262;DHT22;29629;52.532;13.352;2023-03-14T13:55:02;15.90;99.90
41262;DHT22;29629;52.532;13.352;2023-03-14T13:57:42;16.20;99.90
41262;DHT22;29629;52.532;13.352;2023-03-14T14:00:16;16.60;99.90
41262;DHT22;29629;52.532;13.352;2023-03-14T14:02:43;15.70;99.90
41262;DHT22;29629;52.532;13.352;2023-03-14T14:05:10;15.30;99.90
41262;DHT22;29629;52.532;13.352;2023-03-14T14:07:38;15.10;99.90
41262;DHT22;29629;52.532;13.352;2023-03-14T14:10:08;14.80;99.90
41262;DHT22;29629;52.532;13.352;2023-03-14T14:12:36;14.70;99.90
41262;DHT22;29629;52.532;13.352;2023-03-14T14:15:05;15.20;99.90
41262;DHT22;29629;52.532;13.352;2023-03-14T14:17:34;14.70;99.90
41262;DHT22;29629;52.532;13.352;2023-03-14T14:20:01;14.80;99.90
41262;DHT22;29629;52.532;13.352;2023-03-14T14:22:30;14.60;99.90
41262;DHT22;29629;52.532;13.352;2023-03-14T14:24:57;14.50;99.90
41262;DHT22;29629;52.532;13.352;2023-03-14T14:27:27;14.30;99.90
41262;DHT22;29629;52.532;13.352;2023-03-14T14:29:57;14.20;99.90
41262;DHT22;29629;52.532;13.352;2023-03-14T14:32:24;14.10;99.90
41262;DHT22;29629;52.532;13.352;2023-03-14T14:34:56;14.10;99.90
41262;DHT22;29629;52.532;13.352;2023-03-14T14:37:24;14.00;99.90
41262;DHT22;29629;52.532;13.352;2023-03-14T14:39:51;14.00;99.90
41262;DHT22;29629;52.532;13.352;2023-03-14T14:42:19;14.00;99.90
41262;DHT22;29629;52.532;13.352;2023-03-14T14:44:48;14.10;99.90
41262;DHT22;29629;52.532;13.352;2023-03-14T14:47:18;14.00;99.90
41262;DHT22;29629;52.532;13.352;2023-03-14T14:49:46;14.10;99.90
41262;DHT22;29629;52.532;13.352;2023-03-14T14:52:14;14.10;99.90
41262;DHT22;29629;52.532;13.352;2023-03-14T14:54:42;14.00;99.90
41262;DHT22;29629;52.532;13.352;2023-03-14T14:57:17;14.00;99.90
41262;DHT22;29629;52.532;13.352;2023-03-14T14:59:44;14.10;99.90
41262;DHT22;29629;52.532;13.352;2023-03-14T15:02:23;14.00;99.90
41262;DHT22;29629;52.532;13.352;2023-03-14T15:04:52;14.10;99.90
41262;DHT22;29629;52.532;13.352;2023-03-14T15:07:19;14.00;99.90
41262;DHT22;29629;52.532;13.352;2023-03-14T15:09:45;13.90;99.90
41262;DHT22;29629;52.532;13.352;2023-03-14T15:12:12;13.90;99.90
41262;DHT22;29629;52.532;13.352;2023-03-14T15:14:39;13.90;99.90
41262;DHT22;29629;52.532;13.352;2023-03-14T15:17:08;13.50;99.90
41262;DHT22;29629;52.532;13.352;2023-03-14T15:19:37;12.00;99.90
41262;DHT22;29629;52.532;13.352;2023-03-14T15:22:04;10.70;99.90
41262;DHT22;29629;52.532;13.352;2023-03-14T15:24:31;9.40;99.90
41262;DHT22;29629;52.532;13.352;2023-03-14T15:27:03;9.10;99.90
41262;DHT22;29629;52.532;13.352;2023-03-14T15:29:31;8.70;99.90